Time;durP1;ratioP1;P1;durP2;ratioP2;P2;SDS_P1;SDS_P2;PMS_P1;PMS_P2;Temp;Humidity;BMP_temperature;BMP_pressure;BME280_temperature;BME280_humidity;BME280_pressure;Samples;Min_cycle;Max_cycle;Signal;HPM_P1;HPM_P2
2022/10/26 00:08:21;;;;;;;4.10;2.45;;;;;;;11.12;nan;100178.47;5043835;28;20037;-78
2022/10/26 00:48:59;;;;;;;5.68;2.55;;;;;;;11.53;nan;100161.28;5033963;28;20049;-78
2022/10/26 00:52:36;;;;;;;6.50;3.13;;;;;;;11.56;nan;100157.03;5033907;28;20057;-77
2022/10/26 00:55:20;;;;;;;5.05;3.17;;;;;;;11.61;nan;100156.84;4994614;28;20080;-78
2022/10/26 00:58:31;;;;;;;;;;;;;;;;;;;;;
2022/10/26 01:08:14;;;;;;;6.22;3.20;;;;;;;11.76;nan;100159.16;5050747;28;20053;-77
2022/10/26 01:11:12;;;;;;;5.18;3.22;;;;;;;11.81;nan;100165.69;5055198;28;20520;-77
2022/10/26 01:17:18;;;;;;;4.38;2.92;;;;;;;11.87;nan;100150.44;5038768;28;20060;-77
2022/10/26 01:33:35;;;;;;;6.47;3.10;;;;;;;12.03;nan;100139.56;5001484;28;20068;-77
2022/10/26 01:40:03;;;;;;;6.47;2.87;;;;;;;12.08;nan;100129.06;4990468;28;20058;-78
2022/10/26 01:49:45;;;;;;;7.32;3.00;;;;;;;12.13;nan;100133.63;4878297;29;20069;-77
2022/10/26 02:00:03;;;;;;;4.88;2.70;;;;;;;12.19;nan;100121.13;4823060;29;20057;-77
2022/10/26 02:23:46;;;;;;;;;;;;;;;;;;;;;
2022/10/26 02:34:29;;;;;;;8.60;2.88;;;;;;;12.37;nan;100092.00;4865788;29;20538;-80
2022/10/26 02:37:34;;;;;;;6.07;2.88;;;;;;;12.41;nan;100083.75;5008080;28;20463;-78
2022/10/26 02:53:02;;;;;;;4.88;2.20;;;;;;;12.48;nan;100069.25;5032792;28;20046;-78
2022/10/26 02:56:03;;;;;;;4.72;2.50;;;;;;;12.48;nan;100064.50;5019872;28;20060;-78
2022/10/26 03:08:04;;;;;;;6.85;3.13;;;;;;;12.72;nan;100061.03;5025197;28;20064;-78
2022/10/26 03:24:47;;;;;;;5.68;2.60;;;;;;;12.94;nan;100056.31;4842738;28;20495;-78
2022/10/26 03:27:40;;;;;;;7.93;2.97;;;;;;;12.99;nan;100056.91;4993914;28;20054;-79
2022/10/26 03:30:51;;;;;;;7.35;2.70;;;;;;;13.01;nan;100042.59;4967420;28;20058;-77
2022/10/26 03:33:18;;;;;;;5.07;2.50;;;;;;;13.03;nan;100048.66;4968602;28;20070;-78
2022/10/26 03:35:46;;;;;;;4.95;2.65;;;;;;;13.07;nan;100048.81;4959884;28;20542;-78
2022/10/26 03:38:13;;;;;;;5.55;3.03;;;;;;;13.11;nan;100049.75;4989666;28;20061;-78
2022/10/26 03:40:41;;;;;;;7.63;3.45;;;;;;;13.08;nan;100056.00;5033941;28;20068;-78
2022/10/26 03:43:09;;;;;;;5.90;3.22;;;;;;;13.11;nan;100058.13;5033987;28;20064;-77
2022/10/26 03:45:37;;;;;;;5.70;2.88;;;;;;;13.07;nan;100051.59;5033949;28;20470;-78
2022/10/26 03:48:04;;;;;;;9.82;3.03;;;;;;;13.08;nan;100048.47;5033473;28;20517;-77
2022/10/26 03:50:32;;;;;;;4.57;2.63;;;;;;;13.09;nan;100043.69;5033297;28;20418;-78
2022/10/26 03:52:59;;;;;;;8.40;3.20;;;;;;;13.12;nan;100043.00;5033753;28;20050;-78
2022/10/26 03:55:26;;;;;;;4.93;3.05;;;;;;;13.16;nan;100044.75;5033123;28;20053;-78
2022/10/26 03:57:53;;;;;;;6.55;3.20;;;;;;;13.19;nan;100046.06;5033483;28;20062;-78
2022/10/26 04:00:22;;;;;;;5.75;3.28;;;;;;;13.21;nan;100049.34;5033657;28;20057;-78
2022/10/26 04:02:55;;;;;;;6.78;3.10;;;;;;;13.22;nan;100048.16;5029816;28;20061;-78
2022/10/26 04:05:22;;;;;;;6.05;3.10;;;;;;;13.23;nan;100047.03;5031213;28;20060;-78
2022/10/26 04:07:53;;;;;;;3.85;2.72;;;;;;;13.26;nan;100045.50;5033931;28;20060;-78
2022/10/26 04:10:21;;;;;;;4.40;2.60;;;;;;;13.26;nan;100045.50;5033582;28;20065;-77
2022/10/26 04:12:48;;;;;;;8.50;3.25;;;;;;;13.27;nan;100042.38;5033401;28;20069;-77
2022/10/26 04:15:16;;;;;;;6.00;3.17;;;;;;;13.29;nan;100045.69;5033406;28;20367;-77
2022/10/26 04:17:44;;;;;;;5.85;3.08;;;;;;;13.30;nan;100049.28;5033868;28;20060;-78
2022/10/26 04:20:12;;;;;;;5.75;3.08;;;;;;;13.30;nan;100047.31;5013095;28;20111;-78
2022/10/26 04:22:39;;;;;;;5.28;2.72;;;;;;;13.30;nan;100052.09;5013844;28;20058;-78
2022/10/26 04:25:09;;;;;;;9.80;3.50;;;;;;;13.30;nan;100040.91;5013360;28;20085;-77
2022/10/26 04:27:36;;;;;;;7.20;3.22;;;;;;;13.30;nan;100052.91;5007874;28;20054;-78
2022/10/26 04:30:07;;;;;;;4.85;2.95;;;;;;;13.31;nan;100040.56;5022850;28;20058;-78
2022/10/26 04:32:34;;;;;;;6.60;2.83;;;;;;;13.33;nan;100046.63;5012960;28;20054;-78
2022/10/26 04:35:03;;;;;;;9.82;3.85;;;;;;;13.32;nan;100047.78;5013856;28;20478;-79
2022/10/26 04:37:30;;;;;;;6.15;3.40;;;;;;;13.29;nan;100048.47;5013059;28;20054;-78
2022/10/26 04:39:57;;;;;;;13.73;3.80;;;;;;;13.31;nan;100053.72;5013108;28;20058;-78
2022/10/26 04:42:25;;;;;;;5.05;3.30;;;;;;;13.34;nan;100048.25;5032719;28;20061;-78
2022/10/26 04:44:52;;;;;;;5.03;2.90;;;;;;;13.43;nan;100050.16;5032547;28;20058;-78
2022/10/26 04:47:19;;;;;;;5.25;2.20;;;;;;;13.57;nan;100047.88;5032564;28;20061;-78
2022/10/26 04:49:46;;;;;;;2.53;1.50;;;;;;;13.81;nan;100056.31;5029699;28;20490;-78
2022/10/26 04:52:15;;;;;;;3.45;1.30;;;;;;;14.04;nan;100055.09;5031625;28;20415;-78
2022/10/26 04:54:42;;;;;;;5.45;1.20;;;;;;;14.28;nan;100051.47;5032793;28;20430;-78
2022/10/26 04:57:10;;;;;;;2.92;1.13;;;;;;;14.54;nan;100045.53;5033093;28;20053;-79
2022/10/26 04:59:37;;;;;;;3.22;1.33;;;;;;;14.75;nan;100051.00;5032403;28;20060;-78
2022/10/26 05:02:05;;;;;;;3.92;1.30;;;;;;;14.92;nan;100053.53;5026061;28;20069;-78
2022/10/26 05:04:32;;;;;;;5.57;1.58;;;;;;;15.06;nan;100046.75;5016407;28;20061;-78
2022/10/26 05:06:59;;;;;;;4.07;1.52;;;;;;;15.16;nan;100047.06;5013993;28;20165;-78
2022/10/26 05:09:28;;;;;;;3.83;1.40;;;;;;;15.29;nan;100044.22;5012869;28;20407;-78
2022/10/26 05:11:55;;;;;;;7.43;1.35;;;;;;;15.36;nan;100045.22;5016650;28;20065;-78
2022/10/26 05:14:22;;;;;;;3.55;1.30;;;;;;;15.48;nan;100043.53;5013076;28;20081;-78
2022/10/26 05:16:51;;;;;;;3.50;1.40;;;;;;;15.54;nan;100039.28;5023119;28;20068;-78
2022/10/26 05:19:18;;;;;;;2.53;1.10;;;;;;;15.64;nan;100041.56;5019477;28;20417;-79
2022/10/26 05:21:45;;;;;;;3.00;1.20;;;;;;;15.67;nan;100032.44;5012823;28;20087;-78
2022/10/26 05:24:13;;;;;;;5.00;1.00;;;;;;;15.75;nan;100031.50;5012650;28;20065;-79
2022/10/26 05:26:43;;;;;;;3.45;1.13;;;;;;;15.79;nan;100035.22;5011171;28;20065;-79
2022/10/26 05:29:10;;;;;;;4.43;1.10;;;;;;;15.85;nan;100027.31;5016342;28;20065;-79
2022/10/26 05:31:37;;;;;;;3.65;1.10;;;;;;;15.96;nan;100027.63;5028979;28;20133;-78
2022/10/26 05:34:05;;;;;;;2.72;1.08;;;;;;;16.00;nan;100037.75;5031973;28;20061;-79
2022/10/26 05:36:32;;;;;;;7.93;1.67;;;;;;;15.96;nan;100038.84;5031895;28;20406;-79
2022/10/26 05:38:59;;;;;;;3.25;1.75;;;;;;;15.97;nan;100035.66;5031940;28;20057;-79
2022/10/26 05:41:27;;;;;;;5.15;2.20;;;;;;;15.94;nan;100038.41;5032423;28;20066;-79
2022/10/26 05:43:57;;;;;;;4.05;2.85;;;;;;;15.93;nan;100039.56;5027952;28;20054;-83
2022/10/26 05:46:24;;;;;;;4.68;2.97;;;;;;;15.90;nan;100037.50;5023787;28;20050;-79
2022/10/26 05:48:52;;;;;;;4.85;1.98;;;;;;;15.87;nan;100043.81;5032130;28;20061;-79
2022/10/26 05:51:19;;;;;;;5.72;3.28;;;;;;;15.89;nan;100042.25;5017377;28;20053;-77
2022/10/26 05:53:48;;;;;;;4.53;2.00;;;;;;;15.90;nan;100045.91;5010126;28;20053;-79
2022/10/26 05:56:20;;;;;;;4.30;1.55;;;;;;;15.95;nan;100051.25;5021309;28;20050;-78
2022/10/26 05:58:48;;;;;;;7.40;3.03;;;;;;;15.94;nan;100049.63;5012418;28;20062;-78
2022/10/26 06:01:28;;;;;;;5.63;1.83;;;;;;;15.96;nan;100045.28;5014357;28;20501;-80
2022/10/26 06:04:09;;;;;;;5.90;2.22;;;;;;;15.93;nan;100046.00;5013952;28;20108;-77
2022/10/26 06:06:42;;;;;;;3.70;1.50;;;;;;;15.97;nan;100048.91;5016535;28;20049;-82
2022/10/26 06:09:11;;;;;;;7.47;2.10;;;;;;;16.01;nan;100047.81;5019985;28;20068;-81
2022/10/26 06:11:39;;;;;;;3.20;1.25;;;;;;;16.05;nan;100052.72;5016258;28;20062;-82
2022/10/26 06:14:07;;;;;;;4.35;1.80;;;;;;;16.06;nan;100055.16;5016399;28;20050;-81
2022/10/26 06:16:56;;;;;;;6.63;2.90;;;;;;;16.12;nan;100052.88;5016104;28;20061;-80
2022/10/26 06:19:38;;;;;;;5.80;2.50;;;;;;;16.13;nan;100049.72;5015666;28;20058;-81
2022/10/26 06:22:20;;;;;;;4.13;2.08;;;;;;;16.15;nan;100047.38;5009050;28;20058;-80
2022/10/26 06:24:57;;;;;;;4.47;1.33;;;;;;;16.16;nan;100049.00;5012320;28;20064;-80
2022/10/26 06:27:33;;;;;;;3.42;1.13;;;;;;;16.19;nan;100044.63;5011010;28;20077;-80
2022/10/26 06:30:05;;;;;;;2.30;1.02;;;;;;;16.28;nan;100050.91;5015317;28;20069;-80
2022/10/26 06:32:34;;;;;;;3.20;1.05;;;;;;;16.34;nan;100054.25;5014310;28;20053;-80
2022/10/26 06:35:15;;;;;;;4.88;2.10;;;;;;;16.37;nan;100056.31;5015396;28;20076;-80
2022/10/26 06:37:44;;;;;;;8.93;3.30;;;;;;;16.38;nan;100060.78;5013477;28;20595;-80
2022/10/26 06:40:15;;;;;;;10.80;3.80;;;;;;;16.36;nan;100063.16;5015818;28;20053;-80
2022/10/26 06:42:43;;;;;;;9.43;4.03;;;;;;;16.26;nan;100056.06;5015544;28;20053;-80
2022/10/26 06:45:13;;;;;;;10.35;3.80;;;;;;;16.25;nan;100062.84;5015080;28;20173;-80
2022/10/26 06:47:49;;;;;;;15.50;4.25;;;;;;;16.22;nan;100063.59;5014274;28;20065;-80
2022/10/26 06:50:29;;;;;;;13.65;4.22;;;;;;;16.22;nan;100064.41;5015497;28;20058;-80
2022/10/26 06:53:08;;;;;;;8.02;3.33;;;;;;;16.23;nan;100060.44;5013935;28;20049;-80
2022/10/26 06:55:41;;;;;;;10.63;3.22;;;;;;;16.20;nan;100051.91;5014663;28;20486;-81
2022/10/26 06:58:14;;;;;;;5.90;2.85;;;;;;;16.20;nan;100054.72;5015174;28;20415;-81
2022/10/26 07:00:43;;;;;;;8.60;3.00;;;;;;;16.23;nan;100052.00;5015303;28;20391;-81
2022/10/26 07:03:12;;;;;;;7.35;3.22;;;;;;;16.24;nan;100050.81;5036907;28;20052;-80
2022/10/26 07:05:40;;;;;;;9.55;3.40;;;;;;;16.27;nan;100048.44;5043502;28;20049;-80
2022/10/26 07:08:07;;;;;;;6.38;2.92;;;;;;;16.27;nan;100054.88;5036881;28;20062;-80
2022/10/26 07:10:37;;;;;;;4.32;2.80;;;;;;;16.27;nan;100059.69;5018189;28;20482;-76
2022/10/26 07:13:05;;;;;;;8.52;2.85;;;;;;;16.29;nan;100046.09;5047784;28;20068;-77
2022/10/26 07:15:32;;;;;;;4.13;2.10;;;;;;;16.21;nan;100053.50;5040237;28;20064;-77
2022/10/26 07:18:00;;;;;;;4.80;3.00;;;;;;;16.29;nan;100058.13;5032932;28;20069;-79
2022/10/26 07:20:29;;;;;;;8.88;4.28;;;;;;;16.27;nan;100060.50;5038025;28;20057;-78
2022/10/26 07:22:57;;;;;;;5.47;3.33;;;;;;;16.30;nan;100065.41;5034343;28;20059;-79
2022/10/26 07:25:26;;;;;;;9.15;3.85;;;;;;;16.29;nan;100065.75;5029826;28;20499;-79
2022/10/26 07:27:57;;;;;;;15.10;4.18;;;;;;;16.35;nan;100064.31;5028337;28;20429;-80
2022/10/26 07:30:24;;;;;;;7.78;3.45;;;;;;;16.39;nan;100073.66;5023135;28;20053;-78
2022/10/26 07:32:58;;;;;;;9.60;3.67;;;;;;;16.46;nan;100068.19;5037174;28;20049;-77
2022/10/26 07:35:25;;;;;;;7.35;4.18;;;;;;;16.45;nan;100066.56;5036686;28;20056;-77
2022/10/26 07:37:56;;;;;;;8.77;3.28;;;;;;;16.56;nan;100072.44;5028972;28;20054;-77
2022/10/26 07:40:24;;;;;;;7.68;3.90;;;;;;;16.62;nan;100071.78;5035646;28;20061;-77
2022/10/26 07:42:51;;;;;;;9.32;3.90;;;;;;;16.74;nan;100067.25;5028697;28;20060;-76
2022/10/26 07:45:19;;;;;;;7.88;4.18;;;;;;;16.83;nan;100071.50;5025033;28;20068;-78
2022/10/26 07:47:46;;;;;;;7.72;3.67;;;;;;;16.94;nan;100065.31;5034981;28;20060;-79
2022/10/26 07:50:13;;;;;;;10.00;4.18;;;;;;;17.02;nan;100072.75;5037895;28;20065;-78
2022/10/26 07:52:41;;;;;;;10.52;4.20;;;;;;;17.09;nan;100078.50;5046152;28;20052;-78
2022/10/26 07:55:10;;;;;;;11.80;4.35;;;;;;;17.16;nan;100077.88;5024371;28;20489;-77
2022/10/26 07:57:38;;;;;;;10.10;4.00;;;;;;;17.22;nan;100077.22;5040160;28;20061;-77
2022/10/26 08:00:08;;;;;;;8.02;3.80;;;;;;;17.21;nan;100074.75;5023875;28;20058;-77
2022/10/26 08:02:36;;;;;;;5.25;3.45;;;;;;;17.33;nan;100083.06;5038813;28;20083;-79
2022/10/26 08:05:03;;;;;;;11.52;4.20;;;;;;;17.52;nan;100095.53;5038078;28;20056;-78
2022/10/26 08:07:31;;;;;;;8.40;4.13;;;;;;;17.64;nan;100089.75;5038710;28;20057;-76
2022/10/26 08:09:58;;;;;;;8.55;3.88;;;;;;;17.78;nan;100086.38;5030365;28;20080;-77
2022/10/26 08:12:27;;;;;;;9.98;4.47;;;;;;;17.97;nan;100082.72;5028631;28;20418;-77
2022/10/26 08:14:54;;;;;;;8.40;4.63;;;;;;;18.13;nan;100091.88;5020362;28;20053;-78
2022/10/26 08:17:21;;;;;;;10.40;4.50;;;;;;;18.36;nan;100076.97;5023294;28;20471;-79
2022/10/26 08:19:49;;;;;;;11.05;4.70;;;;;;;18.88;nan;100083.88;5034073;28;20057;-80
2022/10/26 08:22:16;;;;;;;9.63;3.58;;;;;;;19.82;nan;100085.91;5031986;28;20061;-81
2022/10/26 08:24:45;;;;;;;6.95;3.15;;;;;;;20.44;nan;100079.66;5028986;28;20057;-80
2022/10/26 08:27:13;;;;;;;7.70;2.92;;;;;;;21.02;nan;100084.56;5027489;28;20060;-79
2022/10/26 08:29:42;;;;;;;4.25;1.55;;;;;;;20.99;nan;100091.00;5034269;28;20057;-77
2022/10/26 08:32:09;;;;;;;;;;;;;;;21.61;nan;100083.66;5031047;28;20510;-80
2022/10/26 08:34:36;;;;;;;2.85;1.20;;;;;;;23.04;nan;100083.00;5033412;28;19921;-77
2022/10/26 08:37:04;;;;;;;5.25;1.02;;;;;;;24.23;nan;100080.41;5032755;28;20119;-77
2022/10/26 08:39:31;;;;;;;2.78;1.20;;;;;;;25.72;nan;100090.75;5032044;28;20072;-78
2022/10/26 08:42:04;;;;;;;3.92;1.25;;;;;;;27.61;nan;100073.69;5032655;28;20482;-81
2022/10/26 08:44:38;;;;;;;4.93;1.25;;;;;;;29.92;nan;100081.69;5032842;28;20175;-80
2022/10/26 08:47:12;;;;;;;3.40;1.30;;;;;;;30.88;nan;100068.31;5032400;28;20418;-80
2022/10/26 08:49:46;;;;;;;2.33;1.00;;;;;;;31.03;nan;100059.97;5033184;28;20058;-81
2022/10/26 08:52:17;;;;;;;4.63;1.10;;;;;;;30.99;nan;100065.84;5032285;28;20410;-80
2022/10/26 08:54:56;;;;;;;4.90;0.90;;;;;;;29.23;nan;100070.59;5046893;28;20061;-78
2022/10/26 08:57:28;;;;;;;3.53;1.00;;;;;;;27.41;nan;100070.88;5047554;28;20064;-77
2022/10/26 09:00:00;;;;;;;2.95;1.10;;;;;;;27.33;nan;100071.00;5032873;28;20057;-76
2022/10/26 09:02:29;;;;;;;2.85;1.10;;;;;;;30.06;nan;100069.75;5030913;28;20049;-77
2022/10/26 09:04:59;;;;;;;6.00;1.50;;;;;;;30.61;nan;100081.13;5032262;28;20053;-75
2022/10/26 09:07:40;;;;;;;3.95;1.25;;;;;;;31.27;nan;100084.19;5032143;28;20057;-77
2022/10/26 09:10:30;;;;;;;6.30;1.48;;;;;;;29.11;nan;100093.03;5032310;28;20057;-80
2022/10/26 09:13:06;;;;;;;5.05;1.10;;;;;;;26.97;nan;100090.88;5015522;28;20053;-79
2022/10/26 09:15:48;;;;;;;6.22;1.63;;;;;;;27.85;nan;100088.72;5032248;28;20061;-81
2022/10/26 09:18:35;;;;;;;3.05;1.33;;;;;;;30.14;nan;100099.88;5038144;28;20053;-79
2022/10/26 09:21:12;;;;;;;2.92;1.50;;;;;;;31.21;nan;100091.00;5031502;28;20399;-82
2022/10/26 09:23:53;;;;;;;5.55;1.55;;;;;;;32.56;nan;100098.56;5030835;28;20463;-79
2022/10/26 09:26:29;;;;;;;4.47;1.27;;;;;;;33.05;nan;100105.53;5019719;28;20068;-81
2022/10/26 09:29:01;;;;;;;4.38;1.30;;;;;;;32.75;nan;100111.72;5032003;28;20058;-81
2022/10/26 09:31:32;;;;;;;2.17;1.35;;;;;;;32.89;nan;100103.75;5031247;28;20498;-82
2022/10/26 09:34:05;;;;;;;4.57;1.40;;;;;;;32.72;nan;100091.72;5031335;28;20057;-79
2022/10/26 09:36:35;;;;;;;4.07;1.38;;;;;;;32.66;nan;100088.66;5032170;28;20408;-80
2022/10/26 09:39:15;;;;;;;3.30;1.48;;;;;;;33.65;nan;100095.47;5036031;28;20433;-77
2022/10/26 09:41:47;;;;;;;3.70;1.13;;;;;;;33.76;nan;100095.75;5032038;28;20057;-82
2022/10/26 09:44:25;;;;;;;6.22;1.60;;;;;;;33.83;nan;100109.88;5031323;28;20084;-79
2022/10/26 09:47:01;;;;;;;4.63;1.52;;;;;;;33.61;nan;100110.06;5031957;28;20413;-77
2022/10/26 09:49:40;;;;;;;4.45;1.58;;;;;;;32.47;nan;100110.84;5031256;28;20049;-76
2022/10/26 09:52:07;;;;;;;3.65;1.10;;;;;;;31.61;nan;100124.91;5012366;28;20058;-77
2022/10/26 09:54:34;;;;;;;2.38;1.38;;;;;;;30.10;nan;100127.09;5029314;28;20050;-79
2022/10/26 09:57:06;;;;;;;2.97;1.40;;;;;;;28.59;nan;100142.69;5032370;28;20078;-80
2022/10/26 09:59:38;;;;;;;3.30;1.65;;;;;;;27.64;nan;100141.50;5031658;28;20064;-79
2022/10/26 10:02:32;;;;;;;3.80;1.33;;;;;;;26.60;nan;100155.59;5020788;28;20060;-80
2022/10/26 10:05:22;;;;;;;3.45;1.58;;;;;;;26.25;nan;100156.94;5004060;28;20054;-79
2022/10/26 10:07:49;;;;;;;5.75;1.60;;;;;;;25.44;nan;100154.66;5031616;28;20072;-83
2022/10/26 10:10:19;;;;;;;4.85;1.80;;;;;;;24.98;nan;100168.13;5031699;28;20053;-79
2022/10/26 10:12:49;;;;;;;3.72;1.20;;;;;;;23.97;nan;100176.50;5032137;28;20518;-78
2022/10/26 10:15:19;;;;;;;3.63;1.30;;;;;;;23.36;nan;100161.66;5021886;28;20053;-81
2022/10/26 10:17:48;;;;;;;6.25;1.63;;;;;;;23.36;nan;100184.41;5019331;28;20057;-80
2022/10/26 10:20:20;;;;;;;;;;;;;;;23.56;nan;100181.91;5019874;28;20060;-79
2022/10/26 10:22:58;;;;;;;5.28;1.55;;;;;;;23.91;nan;100190.34;5031995;28;19921;-80
2022/10/26 10:25:34;;;;;;;5.93;1.65;;;;;;;23.52;nan;100199.00;5031555;28;20057;-79
2022/10/26 10:28:04;;;;;;;3.35;1.42;;;;;;;23.44;nan;100188.84;5032101;28;20057;-79
2022/10/26 10:30:32;;;;;;;5.97;1.38;;;;;;;23.98;nan;100191.53;5026170;28;20061;-78
2022/10/26 10:33:10;;;;;;;4.50;2.03;;;;;;;25.57;nan;100192.00;5020200;28;20434;-79
2022/10/26 10:35:47;;;;;;;5.07;2.08;;;;;;;25.28;nan;100198.81;5018874;28;20053;-78
2022/10/26 10:38:18;;;;;;;4.28;1.60;;;;;;;24.73;nan;100198.84;5025460;28;20064;-74
2022/10/26 10:40:53;;;;;;;6.90;1.83;;;;;;;24.19;nan;100204.84;5027209;28;20437;-76
2022/10/26 10:43:22;;;;;;;10.50;2.00;;;;;;;24.23;nan;100209.31;4992444;28;20061;-79
2022/10/26 10:45:57;;;;;;;4.72;1.80;;;;;;;25.75;nan;100209.72;5005276;28;20066;-77
2022/10/26 10:48:27;;;;;;;5.30;1.90;;;;;;;27.21;nan;100205.22;5008891;28;20415;-77
2022/10/26 10:50:59;;;;;;;3.75;1.90;;;;;;;27.86;nan;100222.03;5013599;28;20054;-77
2022/10/26 10:53:35;;;;;;;4.70;1.85;;;;;;;27.77;nan;100208.28;5014209;28;20049;-76
2022/10/26 10:56:16;;;;;;;6.25;1.80;;;;;;;29.09;nan;100207.38;5014301;28;20069;-77
2022/10/26 10:58:56;;;;;;;5.05;1.85;;;;;;;29.58;nan;100217.19;5012712;28;20138;-78
2022/10/26 11:01:30;;;;;;;4.35;2.00;;;;;;;30.21;nan;100208.00;5013036;28;20057;-77
2022/10/26 11:04:29;;;;;;;4.15;1.80;;;;;;;30.60;nan;100197.38;5013616;28;20050;-79
2022/10/26 11:07:01;;;;;;;4.18;1.73;;;;;;;31.93;nan;100212.97;4992535;28;20050;-79
2022/10/26 11:09:32;;;;;;;6.38;2.38;;;;;;;32.46;nan;100210.13;4998505;28;20054;-79
2022/10/26 11:12:08;;;;;;;5.95;2.15;;;;;;;31.95;nan;100207.56;5015622;28;20045;-74
2022/10/26 11:14:41;;;;;;;4.45;1.58;;;;;;;32.09;nan;100214.91;5018662;28;20052;-77
2022/10/26 11:17:18;;;;;;;5.53;1.80;;;;;;;32.64;nan;100215.22;5014375;28;20061;-79
2022/10/26 11:19:54;;;;;;;5.95;2.20;;;;;;;32.82;nan;100213.66;5008342;28;20061;-75
2022/10/26 11:22:26;;;;;;;3.08;1.92;;;;;;;32.15;nan;100221.66;5017427;28;20065;-80
2022/10/26 11:24:58;;;;;;;4.07;1.52;;;;;;;32.83;nan;100210.31;5023309;28;20061;-80
2022/10/26 11:27:30;;;;;;;4.82;1.85;;;;;;;32.60;nan;100214.56;5016878;28;20058;-80
2022/10/26 11:30:03;;;;;;;5.65;2.28;;;;;;;32.99;nan;100229.47;5018190;28;20064;-80
2022/10/26 11:32:37;;;;;;;6.75;2.20;;;;;;;32.23;nan;100236.59;5020207;28;20069;-78
2022/10/26 11:35:14;;;;;;;6.78;2.30;;;;;;;33.04;nan;100239.56;5008831;28;20073;-80
2022/10/26 11:37:48;;;;;;;4.35;1.77;;;;;;;33.34;nan;100237.88;5017116;28;20053;-75
2022/10/26 11:40:29;;;;;;;3.88;1.90;;;;;;;33.16;nan;100244.44;5009209;28;20081;-75
2022/10/26 11:43:09;;;;;;;4.38;1.85;;;;;;;33.37;nan;100245.63;5024817;28;20056;-78
2022/10/26 11:45:41;;;;;;;11.27;2.38;;;;;;;31.64;nan;100250.66;5014832;28;20054;-76
2022/10/26 11:48:17;;;;;;;5.70;2.13;;;;;;;32.11;nan;100244.03;5020801;28;20054;-78
2022/10/26 11:50:52;;;;;;;5.28;2.38;;;;;;;31.34;nan;100253.72;5008539;28;20066;-77
2022/10/26 11:53:25;;;;;;;6.18;2.00;;;;;;;32.06;nan;100247.50;5008275;28;20069;-77
2022/10/26 11:55:54;;;;;;;7.47;2.58;;;;;;;31.88;nan;100257.59;5017117;28;20050;-77
2022/10/26 11:58:23;;;;;;;4.88;2.97;;;;;;;31.44;nan;100266.16;5004147;28;20057;-77
2022/10/26 12:00:55;;;;;;;5.50;3.08;;;;;;;31.21;nan;100269.41;5016428;28;20053;-78
2022/10/26 12:03:27;;;;;;;4.90;2.60;;;;;;;31.12;nan;100252.81;5030825;28;20058;-77
2022/10/26 12:05:54;;;;;;;4.05;2.22;;;;;;;30.59;nan;100261.88;5031261;28;20076;-78
2022/10/26 12:08:27;;;;;;;4.68;2.67;;;;;;;30.09;nan;100263.34;5033121;28;20406;-78
2022/10/26 12:11:05;;;;;;;3.92;2.53;;;;;;;30.42;nan;100260.38;5035248;28;20485;-79
2022/10/26 12:13:38;;;;;;;4.38;2.80;;;;;;;30.84;nan;100254.53;5039293;28;20060;-83
2022/10/26 12:16:18;;;;;;;6.20;3.03;;;;;;;31.60;nan;100268.06;5029150;28;20053;-79
2022/10/26 12:18:51;;;;;;;3.63;2.60;;;;;;;31.93;nan;100262.75;5026289;28;20060;-79
2022/10/26 12:21:19;;;;;;;6.07;5.47;;;;;;;32.01;nan;100268.31;5040771;28;20490;-79
2022/10/26 12:23:58;;;;;;;4.85;3.70;;;;;;;31.62;nan;100262.63;5039879;28;20406;-77
2022/10/26 12:26:54;;;;;;;3.80;2.97;;;;;;;31.87;nan;100281.91;5049743;28;20132;-79
2022/10/26 12:29:46;;;;;;;5.82;2.50;;;;;;;31.23;nan;100287.00;5030719;28;20056;-79
2022/10/26 12:32:49;;;;;;;2.65;2.13;;;;;;;30.80;nan;100294.13;5030300;28;20061;-79
2022/10/26 12:35:40;;;;;;;6.57;2.83;;;;;;;29.77;nan;100285.16;5037455;28;20057;-78
2022/10/26 12:38:48;;;;;;;4.07;2.58;;;;;;;30.16;nan;100291.91;5030403;28;20064;-77
2022/10/26 12:41:22;;;;;;;3.53;2.45;;;;;;;29.34;nan;100294.91;5024036;28;20068;-79
2022/10/26 12:43:49;;;;;;;3.78;3.03;;;;;;;29.43;nan;100292.19;5033640;28;20061;-79
2022/10/26 12:46:41;;;;;;;3.33;2.92;;;;;;;29.25;nan;100288.97;5029907;28;20057;-79
2022/10/26 12:49:57;;;;;;;3.92;2.72;;;;;;;29.45;nan;100291.75;5034137;28;20601;-80
2022/10/26 12:52:33;;;;;;;3.45;2.90;;;;;;;29.68;nan;100296.47;5026450;28;20518;-81
2022/10/26 12:55:34;;;;;;;4.50;2.40;;;;;;;29.49;nan;100293.25;5033465;28;20071;-77
2022/10/26 12:58:37;;;;;;;3.30;2.53;;;;;;;29.45;nan;100289.69;5010548;28;20062;-76
2022/10/26 13:01:41;;;;;;;4.68;2.50;;;;;;;29.58;nan;100294.69;5029950;28;20068;-76
2022/10/26 13:04:43;;;;;;;3.15;2.13;;;;;;;29.49;nan;100296.13;4995239;28;20057;-81
2022/10/26 13:07:19;;;;;;;6.45;2.63;;;;;;;28.43;nan;100300.22;4987866;28;20172;-76
2022/10/26 13:09:57;;;;;;;4.75;2.25;;;;;;;28.26;nan;100308.72;5016313;28;20045;-79
2022/10/26 13:12:26;;;;;;;5.68;3.15;;;;;;;28.31;nan;100313.16;5012140;28;20073;-80
2022/10/26 13:15:01;;;;;;;5.93;3.08;;;;;;;28.57;nan;100308.53;5006511;28;20057;-79
2022/10/26 13:17:32;;;;;;;3.38;1.67;;;;;;;28.46;nan;100322.28;4999759;28;20053;-80
2022/10/26 13:20:02;;;;;;;3.80;1.33;;;;;;;27.81;nan;100323.50;5013299;28;20050;-81
2022/10/26 13:22:30;;;;;;;3.03;1.55;;;;;;;27.45;nan;100329.06;5010495;28;20440;-79
2022/10/26 13:25:01;;;;;;;5.10;1.88;;;;;;;27.27;nan;100333.00;5011988;28;20449;-79
2022/10/26 13:27:43;;;;;;;4.82;1.60;;;;;;;27.04;nan;100339.44;5007294;28;20058;-79
2022/10/26 13:30:36;;;;;;;2.80;1.65;;;;;;;26.46;nan;100338.59;5007746;28;20061;-79
2022/10/26 13:33:11;;;;;;;3.05;2.10;;;;;;;26.25;nan;100326.19;5010735;28;20061;-79
2022/10/26 13:35:41;;;;;;;3.33;2.10;;;;;;;26.42;nan;100332.13;5000885;28;20429;-79
2022/10/26 13:38:11;;;;;;;2.92;1.77;;;;;;;26.51;nan;100335.25;5007703;28;20069;-77
2022/10/26 13:40:39;;;;;;;3.60;2.53;;;;;;;26.05;nan;100346.00;5012973;28;20053;-77
2022/10/26 13:43:11;;;;;;;4.28;2.63;;;;;;;26.27;nan;100335.16;5027735;28;20409;-77
2022/10/26 13:45:53;;;;;;;5.63;2.22;;;;;;;26.63;nan;100336.78;5011625;28;20054;-76
2022/10/26 13:48:31;;;;;;;4.13;2.15;;;;;;;26.88;nan;100345.03;5005507;28;20124;-72
2022/10/26 13:51:03;;;;;;;4.60;1.83;;;;;;;26.78;nan;100343.13;5016032;28;20064;-71
2022/10/26 13:53:39;;;;;;;3.53;2.05;;;;;;;26.77;nan;100344.34;5014770;28;20053;-71
2022/10/26 13:56:16;;;;;;;4.95;1.80;;;;;;;26.78;nan;100338.19;5011043;28;20058;-72
2022/10/26 13:58:48;;;;;;;4.70;1.90;;;;;;;26.61;nan;100345.78;5004926;28;20057;-74
2022/10/26 14:01:20;;;;;;;2.40;1.35;;;;;;;25.94;nan;100348.16;5008366;28;20076;-74
2022/10/26 14:03:49;;;;;;;3.53;1.85;;;;;;;26.33;nan;100349.75;5006784;28;20107;-82
2022/10/26 14:06:21;;;;;;;3.22;1.77;;;;;;;26.68;nan;100354.25;5009305;28;20490;-82
2022/10/26 14:08:52;;;;;;;4.43;1.75;;;;;;;26.68;nan;100350.59;5010076;28;20416;-80
2022/10/26 14:11:22;;;;;;;2.85;1.40;;;;;;;26.53;nan;100355.63;5017493;28;20061;-80
2022/10/26 14:13:51;;;;;;;3.67;1.30;;;;;;;26.39;nan;100345.19;5004557;28;20457;-79
2022/10/26 14:16:20;;;;;;;3.15;1.40;;;;;;;26.03;nan;100350.50;5009725;28;20052;-80
2022/10/26 14:18:49;;;;;;;4.35;3.45;;;;;;;26.13;nan;100355.28;5007956;28;20050;-80
2022/10/26 14:21:20;;;;;;;3.25;1.48;;;;;;;25.79;nan;100358.06;5020068;28;20524;-79
2022/10/26 14:23:51;;;;;;;2.70;1.10;;;;;;;25.84;nan;100357.59;5005966;28;20054;-79
2022/10/26 14:26:23;;;;;;;3.03;1.25;;;;;;;25.82;nan;100363.72;5017895;28;20054;-80
2022/10/26 14:28:52;;;;;;;2.83;1.40;;;;;;;25.99;nan;100366.84;5011767;28;20392;-79
2022/10/26 14:31:23;;;;;;;3.97;1.48;;;;;;;26.07;nan;100362.69;5025038;28;20076;-80
2022/10/26 14:33:52;;;;;;;5.07;1.40;;;;;;;26.17;nan;100367.50;5013367;28;20061;-81
2022/10/26 14:36:22;;;;;;;3.17;1.10;;;;;;;25.91;nan;100368.97;5013965;28;20072;-79
2022/10/26 14:38:55;;;;;;;3.40;1.20;;;;;;;25.50;nan;100364.81;5010150;28;20518;-80
2022/10/26 14:41:23;;;;;;;2.58;1.00;;;;;;;25.21;nan;100371.97;5007608;28;20073;-77
2022/10/26 14:43:50;;;;;;;3.60;1.20;;;;;;;25.34;nan;100373.09;5014877;28;20064;-78
2022/10/26 14:46:20;;;;;;;2.65;1.30;;;;;;;25.07;nan;100384.22;5011593;28;20068;-82
2022/10/26 14:48:54;;;;;;;1.98;1.10;;;;;;;24.99;nan;100386.31;5018001;28;20053;-78